createdAt,value
2022-11-19T00:01:31.971Z,47.90
2022-11-19T00:03:58.464Z,46.10
2022-11-19T00:06:26.942Z,45.40
2022-11-19T00:08:54.474Z,44.50
2022-11-19T00:11:24.425Z,48.10
2022-11-19T00:13:50.814Z,51.20
2022-11-19T00:16:17.249Z,44.50
2022-11-19T00:18:43.648Z,46.90
2022-11-19T00:21:13.375Z,44.00
2022-11-19T00:23:40.738Z,44.90
2022-11-19T00:26:15.105Z,39.20
2022-11-19T00:28:42.232Z,41.60
2022-11-19T00:31:11.873Z,41.00
2022-11-19T00:33:40.074Z,40.70
2022-11-19T00:36:09.257Z,38.70
2022-11-19T00:38:35.712Z,39.70
2022-11-19T00:41:02.365Z,38.60
2022-11-19T00:43:29.099Z,39.60
2022-11-19T00:45:55.642Z,40.80
2022-11-19T00:48:22.064Z,39.40
2022-11-19T00:50:48.518Z,41.50
2022-11-19T00:53:14.926Z,41.00
2022-11-19T00:55:41.420Z,44.50
2022-11-19T00:58:07.976Z,46.40
2022-11-19T01:00:34.516Z,46.90
2022-11-19T01:03:01.012Z,49.10
2022-11-19T01:05:27.481Z,44.90
2022-11-19T01:07:54.296Z,47.70
2022-11-19T01:10:20.715Z,51.60
2022-11-19T01:12:47.143Z,45.30
2022-11-19T01:15:13.617Z,54.70
2022-11-19T01:17:40.152Z,44.90
2022-11-19T01:20:07.662Z,47.80
2022-11-19T01:22:34.145Z,52.00
2022-11-19T01:25:00.695Z,51.20
2022-11-19T01:27:27.284Z,46.40
2022-11-19T01:29:53.654Z,46.00
2022-11-19T01:32:20.122Z,45.80
2022-11-19T01:34:46.657Z,46.80
2022-11-19T01:37:13.037Z,44.20
2022-11-19T01:39:39.428Z,49.80
2022-11-19T01:42:06.273Z,42.50
2022-11-19T01:45:00.258Z,46.90
2022-11-19T01:47:27.406Z,45.60
2022-11-19T01:49:54.540Z,47.20
2022-11-19T01:52:22.338Z,45.50
2022-11-19T01:54:55.736Z,44.00
2022-11-19T01:57:22.581Z,40.90
2022-11-19T01:59:52.015Z,45.50
2022-11-19T02:02:19.867Z,39.90
2022-11-19T02:04:47.202Z,44.30
2022-11-19T02:07:14.243Z,42.70
2022-11-19T02:09:41.485Z,44.80
2022-11-19T02:12:32.136Z,39.40
2022-11-19T02:15:22.137Z,42.30
2022-11-19T02:18:06.689Z,40.10
2022-11-19T02:21:05.383Z,42.10
2022-11-19T02:24:09.511Z,39.80
2022-11-19T02:26:42.197Z,40.40
2022-11-19T02:29:26.871Z,43.20
2022-11-19T02:32:01.180Z,40.10
2022-11-19T02:34:34.507Z,40.50
2022-11-19T02:37:10.440Z,40.30
2022-11-19T02:39:46.098Z,40.70
2022-11-19T02:42:18.478Z,45.20
2022-11-19T02:44:48.428Z,42.70
2022-11-19T02:47:22.474Z,41.30
2022-11-19T02:49:53.480Z,40.00
2022-11-19T02:52:20.829Z,37.70
2022-11-19T02:54:47.874Z,38.40
2022-11-19T02:57:14.620Z,34.70
2022-11-19T02:59:48.868Z,42.10
2022-11-19T03:02:18.779Z,35.40
2022-11-19T03:04:45.213Z,44.30
2022-11-19T03:07:17.490Z,41.20
2022-11-19T03:09:57.535Z,38.10
2022-11-19T03:12:36.266Z,43.20
2022-11-19T03:15:23.600Z,38.10
2022-11-19T03:18:13.893Z,39.30
2022-11-19T03:20:50.483Z,41.40
2022-11-19T03:23:32.679Z,43.40
2022-11-19T03:26:26.051Z,43.60
2022-11-19T03:28:55.283Z,42.30
2022-11-19T03:31:25.995Z,39.70
2022-11-19T03:33:57.286Z,37.10
2022-11-19T03:36:30.157Z,39.50
2022-11-19T03:39:02.046Z,38.50
2022-11-19T03:41:29.773Z,41.10
2022-11-19T03:44:09.966Z,36.90
2022-11-19T03:46:39.736Z,38.10
2022-11-19T03:49:08.325Z,34.30
2022-11-19T03:51:40.716Z,34.60
2022-11-19T03:54:08.433Z,37.20
2022-11-19T03:56:39.020Z,38.60
2022-11-19T03:59:08.462Z,38.20
2022-11-19T04:01:35.276Z,37.50
2022-11-19T04:04:01.732Z,36.80
2022-11-19T04:06:28.256Z,35.90
2022-11-19T04:08:54.676Z,36.50
2022-11-19T04:13:46.547Z,40.40
2022-11-19T04:16:13.203Z,37.90
2022-11-19T04:18:39.628Z,34.00
2022-11-19T04:21:06.269Z,40.10
2022-11-19T04:23:32.741Z,37.90
2022-11-19T04:25:59.254Z,35.30
2022-11-19T04:28:25.898Z,35.80
2022-11-19T04:30:52.346Z,40.70
2022-11-19T04:33:18.730Z,33.90
2022-11-19T04:35:46.399Z,33.60
2022-11-19T04:38:12.919Z,32.40
2022-11-19T04:40:39.323Z,34.50
2022-11-19T04:43:05.759Z,37.30
2022-11-19T04:45:32.572Z,32.50
2022-11-19T04:47:58.995Z,33.00
2022-11-19T04:50:25.584Z,30.60
2022-11-19T04:52:51.999Z,34.90
2022-11-19T04:55:18.427Z,32.70
2022-11-19T04:57:44.848Z,32.30
2022-11-19T05:00:12.154Z,31.50
2022-11-19T05:02:38.550Z,34.60
2022-11-19T05:05:05.655Z,33.30
2022-11-19T05:07:32.236Z,32.80
2022-11-19T05:09:58.724Z,35.60
2022-11-19T05:12:25.264Z,33.20
2022-11-19T05:14:51.703Z,35.00
2022-11-19T05:17:18.245Z,34.30
2022-11-19T05:19:44.711Z,35.60
2022-11-19T05:22:11.090Z,35.80
2022-11-19T05:24:37.547Z,33.30
2022-11-19T05:27:04.366Z,33.20
2022-11-19T05:29:30.955Z,32.00
2022-11-19T05:31:57.382Z,34.60
2022-11-19T05:34:23.931Z,30.30
2022-11-19T05:36:50.367Z,32.50
2022-11-19T05:39:21.817Z,32.40
2022-11-19T05:41:48.918Z,34.00
2022-11-19T05:44:15.355Z,29.40
2022-11-19T05:46:41.760Z,32.70
2022-11-19T05:49:08.293Z,31.40
2022-11-19T05:51:35.267Z,33.40
2022-11-19T05:54:01.747Z,33.40
2022-11-19T05:56:28.243Z,35.10
2022-11-19T05:58:54.654Z,41.40
2022-11-19T06:01:28.596Z,38.80
2022-11-19T06:03:55.909Z,36.90
2022-11-19T06:06:23.126Z,38.90
2022-11-19T06:08:50.449Z,40.00
2022-11-19T06:11:17.378Z,40.90
2022-11-19T06:13:43.780Z,48.90
2022-11-19T06:16:10.274Z,38.80
2022-11-19T06:18:36.658Z,35.80
2022-11-19T06:21:11.930Z,38.90
2022-11-19T06:23:38.722Z,47.80
2022-11-19T06:26:08.197Z,43.50
2022-11-19T06:28:34.645Z,41.70
2022-11-19T06:31:01.390Z,43.80
2022-11-19T06:33:27.941Z,40.80
2022-11-19T06:35:54.879Z,52.80
2022-11-19T06:38:21.423Z,48.00
2022-11-19T06:40:48.170Z,44.80
2022-11-19T06:43:14.603Z,45.00
2022-11-19T06:45:41.118Z,41.70
2022-11-19T06:48:07.683Z,43.70
2022-11-19T06:50:34.124Z,43.70
2022-11-19T06:53:00.622Z,44.60
2022-11-19T06:55:27.111Z,45.10
2022-11-19T06:57:53.559Z,49.10
2022-11-19T07:00:20.283Z,43.70
2022-11-19T07:02:47.323Z,46.40
2022-11-19T07:05:13.763Z,43.00
2022-11-19T07:07:40.300Z,36.20
2022-11-19T07:10:07.449Z,41.10
2022-11-19T07:12:33.859Z,47.00
2022-11-19T07:15:04.322Z,46.30
2022-11-19T07:17:31.319Z,50.00
2022-11-19T07:19:58.746Z,38.20
2022-11-19T07:22:25.286Z,36.00
2022-11-19T07:24:51.753Z,40.60
2022-11-19T07:27:18.264Z,42.40
2022-11-19T07:29:44.764Z,40.40
2022-11-19T07:32:11.181Z,44.40
2022-11-19T07:34:37.593Z,37.00
2022-11-19T07:37:04.092Z,34.90
2022-11-19T07:39:30.470Z,33.70
2022-11-19T07:41:57.001Z,32.50
2022-11-19T07:44:23.635Z,36.20
2022-11-19T07:46:50.214Z,64.70
2022-11-19T07:49:17.211Z,53.90
2022-11-19T07:51:44.177Z,34.40
2022-11-19T07:54:12.189Z,31.10
2022-11-19T07:56:38.690Z,34.70
2022-11-19T07:59:05.430Z,29.90
2022-11-19T08:01:31.908Z,30.40
2022-11-19T08:03:58.310Z,35.10
2022-11-19T08:06:28.160Z,29.80
2022-11-19T08:08:55.797Z,31.50
2022-11-19T08:11:23.225Z,130.80
2022-11-19T08:13:49.696Z,45.50
2022-11-19T08:16:17.567Z,32.40
2022-11-19T08:18:44.502Z,32.00
2022-11-19T08:21:12.285Z,32.20
2022-11-19T08:23:39.517Z,33.30
2022-11-19T08:26:07.513Z,37.20
2022-11-19T08:28:34.054Z,30.10
2022-11-19T08:31:08.536Z,38.60
2022-11-19T08:33:35.838Z,43.10
2022-11-19T08:36:02.889Z,36.10
2022-11-19T08:38:32.278Z,37.10
2022-11-19T08:41:01.022Z,33.20
2022-11-19T08:43:27.528Z,35.60
2022-11-19T08:45:54.078Z,29.90
2022-11-19T08:48:20.518Z,22.90
2022-11-19T08:50:47.144Z,24.40
2022-11-19T08:53:13.685Z,26.60
2022-11-19T08:55:40.267Z,22.40
2022-11-19T08:58:07.789Z,26.00
2022-11-19T09:00:36.442Z,26.90
2022-11-19T09:03:03.126Z,23.10
2022-11-19T09:05:29.506Z,26.10
2022-11-19T09:07:55.940Z,28.40
2022-11-19T09:10:22.619Z,29.00
2022-11-19T09:12:49.274Z,26.80
2022-11-19T09:15:16.009Z,23.80
2022-11-19T09:17:46.562Z,28.60
2022-11-19T09:20:13.552Z,22.40
2022-11-19T09:22:40.045Z,22.20
2022-11-19T09:25:07.154Z,25.40
2022-11-19T09:27:33.740Z,22.90
2022-11-19T09:30:00.183Z,21.60
2022-11-19T09:32:28.488Z,21.20
2022-11-19T09:34:55.108Z,21.70
2022-11-19T09:37:21.560Z,22.10
2022-11-19T09:39:48.090Z,23.30
2022-11-19T09:42:39.716Z,25.20
2022-11-19T09:45:26.223Z,23.50
2022-11-19T09:48:07.893Z,26.40
2022-11-19T09:53:15.441Z,19.80
2022-11-19T09:55:45.383Z,24.00
2022-11-19T09:58:37.928Z,23.30
2022-11-19T10:01:04.691Z,25.20
2022-11-19T10:03:33.823Z,23.40
2022-11-19T10:06:00.498Z,24.70
2022-11-19T10:08:33.131Z,20.60
2022-11-19T10:11:50.924Z,27.50
2022-11-19T10:15:05.453Z,24.90
2022-11-19T10:17:47.089Z,25.80
2022-11-19T10:22:57.663Z,22.50
2022-11-19T10:25:39.308Z,22.30
2022-11-19T10:28:13.898Z,24.00
2022-11-19T10:30:46.782Z,23.00
2022-11-19T10:33:47.159Z,25.50
2022-11-19T10:36:24.813Z,26.60
2022-11-19T10:39:10.303Z,26.70
2022-11-19T10:41:49.287Z,26.10
2022-11-19T10:44:23.720Z,25.00
2022-11-19T10:46:50.908Z,23.50
2022-11-19T10:49:17.644Z,25.60
2022-11-19T10:51:44.601Z,23.20
2022-11-19T10:54:23.101Z,23.80
2022-11-19T10:56:52.239Z,25.10
2022-11-19T10:59:27.067Z,25.20
2022-11-19T11:02:02.119Z,23.00
2022-11-19T11:04:29.971Z,24.10
2022-11-19T11:06:59.304Z,25.60
2022-11-19T11:09:37.546Z,24.10
2022-11-19T11:12:22.678Z,23.60
2022-11-19T11:14:49.817Z,24.20
2022-11-19T11:17:28.646Z,23.90
2022-11-19T11:20:00.518Z,31.50
2022-11-19T11:22:27.888Z,38.40
2022-11-19T11:24:54.814Z,36.90
2022-11-19T11:27:29.091Z,24.50
2022-11-19T11:30:25.071Z,24.50
2022-11-19T11:32:51.646Z,22.10
2022-11-19T11:35:32.186Z,27.60
2022-11-19T11:38:01.560Z,33.00
2022-11-19T11:40:29.543Z,23.60
2022-11-19T11:42:56.206Z,26.30
2022-11-19T11:45:32.744Z,30.20
2022-11-19T11:48:08.330Z,28.70
2022-11-19T11:50:37.023Z,26.40
2022-11-19T11:53:09.298Z,26.10
2022-11-19T11:55:35.941Z,25.10
2022-11-19T11:58:05.345Z,23.60
2022-11-19T12:00:40.798Z,25.40
2022-11-19T12:03:09.961Z,24.80
2022-11-19T12:06:16.496Z,28.50
2022-11-19T12:09:03.086Z,39.90
2022-11-19T12:11:47.630Z,31.70
2022-11-19T12:14:19.109Z,29.00
2022-11-19T12:19:26.931Z,23.90
2022-11-19T12:22:02.275Z,35.20
2022-11-19T12:24:59.948Z,32.80
2022-11-19T12:27:26.318Z,37.50
2022-11-19T12:30:15.868Z,27.50
2022-11-19T12:33:05.153Z,25.30
2022-11-19T12:35:46.732Z,21.00
2022-11-19T12:40:53.129Z,31.30
2022-11-19T12:43:43.016Z,25.20
2022-11-19T12:46:27.981Z,24.30
2022-11-19T12:49:29.635Z,25.00
2022-11-19T12:51:56.021Z,25.20
2022-11-19T12:54:59.718Z,38.80
2022-11-19T12:57:47.149Z,25.00
2022-11-19T13:00:19.829Z,22.00
2022-11-19T13:03:04.591Z,25.20
2022-11-19T13:05:41.551Z,23.70
2022-11-19T13:08:35.307Z,30.20
2022-11-19T13:11:33.726Z,29.10
2022-11-19T13:14:03.280Z,29.60
2022-11-19T13:16:33.651Z,28.50
2022-11-19T13:19:39.462Z,30.20
2022-11-19T13:22:17.862Z,28.00
2022-11-19T13:24:59.764Z,29.20
2022-11-19T13:27:28.462Z,33.90
2022-11-19T13:30:02.568Z,32.30
2022-11-19T13:32:59.086Z,25.90
2022-11-19T13:35:43.375Z,28.30
2022-11-19T13:38:31.122Z,38.40
2022-11-19T13:41:24.658Z,28.50
2022-11-19T13:43:54.416Z,31.70
2022-11-19T13:46:34.349Z,31.40
2022-11-19T13:49:07.546Z,34.80
2022-11-19T13:51:44.640Z,32.10
2022-11-19T13:54:40.013Z,35.10
2022-11-19T13:57:09.470Z,38.90
2022-11-19T13:59:47.776Z,38.10
2022-11-19T14:02:55.785Z,41.60
2022-11-19T14:05:35.738Z,34.70
2022-11-19T14:08:14.535Z,40.80
2022-11-19T14:10:49.202Z,38.90
2022-11-19T14:13:44.418Z,40.10
2022-11-19T14:16:19.827Z,41.20
2022-11-19T14:18:54.538Z,45.10
2022-11-19T14:21:24.472Z,48.50
2022-11-19T14:23:50.949Z,43.50
2022-11-19T14:26:42.501Z,43.40
2022-11-19T14:29:18.538Z,51.80
2022-11-19T14:32:00.184Z,67.40
2022-11-19T14:34:30.344Z,49.70
2022-11-19T14:37:00.897Z,50.90
2022-11-19T14:39:38.916Z,36.20
2022-11-19T14:42:18.025Z,45.60
2022-11-19T14:45:13.987Z,45.40
2022-11-19T14:47:42.304Z,49.80
2022-11-19T14:50:21.668Z,52.70
2022-11-19T14:52:57.855Z,53.90
2022-11-19T14:55:30.477Z,60.20
2022-11-19T14:58:04.144Z,80.20
2022-11-19T15:00:37.014Z,64.70
2022-11-19T15:03:07.404Z,61.40
2022-11-19T15:05:40.330Z,65.10
2022-11-19T15:08:18.871Z,67.10
2022-11-19T15:11:06.499Z,77.70
2022-11-19T15:13:35.497Z,59.10
2022-11-19T15:16:05.795Z,62.10
2022-11-19T15:18:41.345Z,72.60
2022-11-19T15:21:13.750Z,70.30
2022-11-19T15:24:04.293Z,69.10
2022-11-19T15:26:36.534Z,60.20
2022-11-19T15:29:22.428Z,74.60
2022-11-19T15:32:39.452Z,66.10
2022-11-19T15:35:19.794Z,79.30
2022-11-19T15:37:51.249Z,66.80
2022-11-19T15:40:23.732Z,102.60
2022-11-19T15:43:02.030Z,160.40
2022-11-19T15:45:36.582Z,137.40
2022-11-19T15:48:17.970Z,156.60
2022-11-19T15:50:45.101Z,76.20
2022-11-19T15:53:23.355Z,90.90
2022-11-19T15:55:58.305Z,115.60
2022-11-19T15:58:28.535Z,94.60
2022-11-19T16:00:55.888Z,103.50
2022-11-19T16:03:23.284Z,401.70
2022-11-19T16:06:01.453Z,101.70
2022-11-19T16:08:28.542Z,114.60
2022-11-19T16:10:55.436Z,127.80
2022-11-19T16:13:26.566Z,141.80
2022-11-19T16:15:54.581Z,99.50
2022-11-19T16:18:21.099Z,131.50
2022-11-19T16:20:51.444Z,152.70
2022-11-19T16:23:24.045Z,192.20
2022-11-19T16:25:51.342Z,100.50
2022-11-19T16:28:29.778Z,107.80
2022-11-19T16:31:04.597Z,113.10
2022-11-19T16:33:32.917Z,75.60
2022-11-19T16:36:17.444Z,93.30
2022-11-19T16:38:48.029Z,82.20
2022-11-19T16:41:17.801Z,93.80
2022-11-19T16:43:45.569Z,90.30
2022-11-19T16:46:15.831Z,97.50
2022-11-19T16:48:42.340Z,110.40
2022-11-19T16:51:32.225Z,89.30
2022-11-19T16:53:59.165Z,83.50
2022-11-19T16:56:26.927Z,81.80
2022-11-19T16:58:59.135Z,76.40
2022-11-19T17:01:29.663Z,76.30
2022-11-19T17:04:06.470Z,77.80
2022-11-19T17:06:36.137Z,109.40
2022-11-19T17:09:05.032Z,119.10
2022-11-19T17:11:50.102Z,90.20
2022-11-19T17:14:16.540Z,92.00
2022-11-19T17:16:51.486Z,82.50
2022-11-19T17:19:30.837Z,102.40
2022-11-19T17:22:01.853Z,101.90
2022-11-19T17:24:34.443Z,106.80
2022-11-19T17:27:00.986Z,83.30
2022-11-19T17:29:27.731Z,87.10
2022-11-19T17:31:55.706Z,80.20
2022-11-19T17:34:27.771Z,77.20
2022-11-19T17:36:54.178Z,79.10
2022-11-19T17:39:25.151Z,69.60
2022-11-19T17:44:25.913Z,98.80
2022-11-19T17:46:52.354Z,63.40
2022-11-19T17:49:18.837Z,67.20
2022-11-19T17:51:45.274Z,68.30
2022-11-19T17:54:11.963Z,70.60
2022-11-19T17:56:38.519Z,74.40
2022-11-19T17:59:04.961Z,87.70
2022-11-19T18:01:31.514Z,78.60
2022-11-19T18:03:58.143Z,99.70
2022-11-19T18:06:24.695Z,107.00
2022-11-19T18:08:51.652Z,71.80
2022-11-19T18:11:21.652Z,57.80
2022-11-19T18:13:51.703Z,70.40
2022-11-19T18:16:23.881Z,81.90
2022-11-19T18:18:51.314Z,88.50
2022-11-19T18:21:20.413Z,91.80
2022-11-19T18:23:48.715Z,146.50
2022-11-19T18:26:18.078Z,79.50
2022-11-19T18:28:47.754Z,166.50
2022-11-19T18:31:19.122Z,240.30
2022-11-19T18:33:46.031Z,140.20
2022-11-19T18:36:12.486Z,84.40
2022-11-19T18:38:39.088Z,88.60
2022-11-19T18:41:05.710Z,83.50
2022-11-19T18:43:36.193Z,107.60
2022-11-19T18:46:05.501Z,87.40
2022-11-19T18:48:31.901Z,84.50
2022-11-19T18:50:58.302Z,81.40
2022-11-19T18:53:24.802Z,73.10
2022-11-19T18:55:52.227Z,74.00
2022-11-19T18:58:18.719Z,60.60
2022-11-19T19:00:45.310Z,63.40
2022-11-19T19:03:11.859Z,64.50
2022-11-19T19:05:39.106Z,73.00
2022-11-19T19:08:06.000Z,69.30
2022-11-19T19:10:33.548Z,67.10
2022-11-19T19:13:00.276Z,77.30
2022-11-19T19:15:26.819Z,118.60
2022-11-19T19:17:53.556Z,194.30
2022-11-19T19:20:20.007Z,169.50
2022-11-19T19:22:46.538Z,303.60
2022-11-19T19:25:12.983Z,213.60
2022-11-19T19:27:39.495Z,259.40
2022-11-19T19:30:06.664Z,244.20
2022-11-19T19:32:33.061Z,204.10
2022-11-19T19:34:59.645Z,132.90
2022-11-19T19:37:26.185Z,197.20
2022-11-19T19:39:52.728Z,156.30
2022-11-19T19:42:19.271Z,134.50
2022-11-19T19:44:45.800Z,119.90
2022-11-19T19:47:12.338Z,96.40
2022-11-19T19:49:39.273Z,154.90
2022-11-19T19:52:05.934Z,159.60
2022-11-19T19:54:32.335Z,180.70
2022-11-19T19:56:58.915Z,150.80
2022-11-19T19:59:25.437Z,167.60
2022-11-19T20:01:51.959Z,346.90
2022-11-19T20:04:18.527Z,144.20
2022-11-19T20:06:46.835Z,124.60
2022-11-19T20:09:13.623Z,116.40
2022-11-19T20:11:40.194Z,110.40
2022-11-19T20:14:07.243Z,115.10
2022-11-19T20:16:34.932Z,122.90
2022-11-19T20:19:02.195Z,122.30
2022-11-19T20:21:31.868Z,127.60
2022-11-19T20:23:58.523Z,120.40
2022-11-19T20:26:30.618Z,152.40
2022-11-19T20:28:59.998Z,114.10
2022-11-19T20:31:27.463Z,149.80
2022-11-19T20:33:57.372Z,135.50
2022-11-19T20:36:25.667Z,162.90
2022-11-19T20:38:52.715Z,171.20
2022-11-19T20:41:21.613Z,165.40
2022-11-19T20:43:52.644Z,170.00
2022-11-19T20:46:21.710Z,154.00
2022-11-19T20:48:49.318Z,172.00
2022-11-19T20:51:15.992Z,173.80
2022-11-19T20:53:43.046Z,212.60
2022-11-19T20:56:09.738Z,129.10
2022-11-19T20:58:36.178Z,150.00
2022-11-19T21:01:08.464Z,235.70
2022-11-19T21:03:35.008Z,167.40
2022-11-19T21:06:04.061Z,144.90
2022-11-19T21:08:31.880Z,159.50
2022-11-19T21:11:01.693Z,166.90
2022-11-19T21:13:28.645Z,170.70
2022-11-19T21:15:57.230Z,161.40
2022-11-19T21:18:24.642Z,251.70
2022-11-19T21:20:52.134Z,159.00
2022-11-19T21:23:19.114Z,147.70
2022-11-19T21:25:45.972Z,118.60
2022-11-19T21:28:12.571Z,110.50
2022-11-19T21:30:38.997Z,121.30
2022-11-19T21:33:05.578Z,126.10
2022-11-19T21:35:31.990Z,113.30
2022-11-19T21:37:58.550Z,105.80
2022-11-19T21:40:25.092Z,123.70
2022-11-19T21:42:52.066Z,130.30
2022-11-19T21:45:18.590Z,133.70
2022-11-19T21:47:45.316Z,124.30
2022-11-19T21:50:11.957Z,131.60
2022-11-19T21:52:38.498Z,138.40
2022-11-19T21:55:05.860Z,128.20
2022-11-19T21:57:32.296Z,114.00
2022-11-19T21:59:58.837Z,112.70
2022-11-19T22:02:25.376Z,121.60
2022-11-19T22:04:51.911Z,122.70
2022-11-19T22:07:18.323Z,109.40
2022-11-19T22:09:45.094Z,116.30
2022-11-19T22:12:11.634Z,140.70
2022-11-19T22:14:38.010Z,113.40
2022-11-19T22:17:04.614Z,124.50
2022-11-19T22:19:31.045Z,119.00
2022-11-19T22:21:57.593Z,120.40
2022-11-19T22:24:24.338Z,133.80
2022-11-19T22:26:50.886Z,110.30
2022-11-19T22:29:17.273Z,137.30
2022-11-19T22:31:43.854Z,136.70
2022-11-19T22:34:12.033Z,142.40
2022-11-19T22:36:38.615Z,159.10
2022-11-19T22:39:05.062Z,176.60
2022-11-19T22:41:31.555Z,173.90
2022-11-19T22:43:58.600Z,162.30
2022-11-19T22:46:25.140Z,136.00
2022-11-19T22:48:51.929Z,178.10
2022-11-19T22:51:21.296Z,167.10
2022-11-19T22:53:50.041Z,149.60
2022-11-19T22:56:19.690Z,151.40
2022-11-19T22:58:46.889Z,138.70
2022-11-19T23:01:28.232Z,152.30
2022-11-19T23:03:56.507Z,125.70
2022-11-19T23:06:23.642Z,111.00
2022-11-19T23:08:51.302Z,136.00
2022-11-19T23:11:20.521Z,133.40
2022-11-19T23:13:47.113Z,127.90
2022-11-19T23:16:16.548Z,143.20
2022-11-19T23:18:48.164Z,151.50
2022-11-19T23:23:42.913Z,125.80
2022-11-19T23:26:12.287Z,126.80
2022-11-19T23:28:39.871Z,105.40
2022-11-19T23:31:14.122Z,113.70
2022-11-19T23:33:41.023Z,113.80
2022-11-19T23:36:12.590Z,117.10
2022-11-19T23:41:09.942Z,114.10
2022-11-19T23:43:37.654Z,111.90
2022-11-19T23:46:09.936Z,106.70
2022-11-19T23:48:38.178Z,99.80
2022-11-19T23:51:07.602Z,107.40
2022-11-19T23:53:34.641Z,103.20
2022-11-19T23:56:01.490Z,111.30
2022-11-19T23:58:28.649Z,108.80
